Time;durP1;ratioP1;P1;durP2;ratioP2;P2;SDS_P1;SDS_P2;PMS_P1;PMS_P2;Temp;Humidity;BMP_temperature;BMP_pressure;BME280_temperature;BME280_humidity;BME280_pressure;Samples;Min_cycle;Max_cycle;Signal;HPM_P1;HPM_P2
2023/11/07 00:01:18;;;;;;;4.10;1.77;;;10.40;1.00;;;;;;5128225;27;20475;-69
2023/11/07 00:03:45;;;;;;;2.80;1.53;;;10.40;1.00;;;;;;5126376;27;20587;-72
2023/11/07 00:06:12;;;;;;;2.30;1.57;;;10.50;1.00;;;;;;5128956;27;20991;-73
2023/11/07 00:08:39;;;;;;;2.13;1.40;;;10.60;1.00;;;;;;5145431;27;20468;-69
2023/11/07 00:11:06;;;;;;;5.10;1.90;;;10.60;1.00;;;;;;5124281;27;20621;-71
2023/11/07 00:13:33;;;;;;;1.67;1.10;;;10.70;1.00;;;;;;5129840;27;20463;-74
2023/11/07 00:16:01;;;;;;;2.20;1.57;;;10.70;1.00;;;;;;5120513;27;20545;-76
2023/11/07 00:18:28;;;;;;;2.17;1.40;;;10.60;1.00;;;;;;5132550;27;20549;-75
2023/11/07 00:20:57;;;;;;;2.70;1.27;;;10.60;1.00;;;;;;5122294;27;20491;-74
2023/11/07 00:23:23;;;;;;;3.27;1.20;;;10.60;1.00;;;;;;5145884;27;20962;-74
2023/11/07 00:25:53;;;;;;;2.60;1.70;;;10.50;1.00;;;;;;5124713;27;20514;-76
2023/11/07 00:28:20;;;;;;;3.00;1.57;;;10.50;1.00;;;;;;5124621;27;20582;-75
2023/11/07 00:30:47;;;;;;;2.67;1.40;;;10.50;1.00;;;;;;5132828;27;20464;-74
2023/11/07 00:33:16;;;;;;;5.33;1.47;;;10.40;1.00;;;;;;5141300;27;20522;-74
2023/11/07 00:35:43;;;;;;;2.20;1.30;;;10.40;1.00;;;;;;5129661;27;20502;-74
2023/11/07 00:38:10;;;;;;;3.73;1.97;;;10.30;1.00;;;;;;5127534;27;20459;-74
2023/11/07 00:40:37;;;;;;;2.40;1.13;;;10.30;1.00;;;;;;5138758;27;20547;-74
2023/11/07 00:43:04;;;;;;;1.70;1.50;;;10.30;1.00;;;;;;5127193;27;20540;-74
2023/11/07 00:45:31;;;;;;;3.17;1.00;;;10.30;1.00;;;;;;5125184;27;20485;-74
2023/11/07 00:47:58;;;;;;;1.50;1.07;;;10.20;1.00;;;;;;5124542;27;21072;-74
2023/11/07 00:50:26;;;;;;;3.13;1.70;;;10.20;1.00;;;;;;5127368;27;21022;-74
2023/11/07 00:52:53;;;;;;;2.80;1.30;;;10.20;1.00;;;;;;5146664;27;20488;-75
2023/11/07 00:55:21;;;;;;;2.63;1.37;;;10.10;1.00;;;;;;5149281;27;20467;-74
2023/11/07 00:57:48;;;;;;;2.07;1.17;;;10.10;1.00;;;;;;5129997;27;20569;-76
2023/11/07 01:00:16;;;;;;;2.63;1.40;;;10.10;1.00;;;;;;5128777;27;20473;-74
2023/11/07 01:02:43;;;;;;;1.67;1.10;;;10.00;1.00;;;;;;5124770;27;20497;-74
2023/11/07 01:05:10;;;;;;;1.40;0.83;;;10.00;1.00;;;;;;5143706;27;20484;-76
2023/11/07 01:07:39;;;;;;;2.93;1.40;;;10.00;1.00;;;;;;5127846;27;20864;-73
2023/11/07 01:10:07;;;;;;;3.13;1.87;;;10.00;1.00;;;;;;5139672;27;20460;-74
2023/11/07 01:12:34;;;;;;;7.33;1.50;;;9.90;1.00;;;;;;5151370;27;20545;-74
2023/11/07 01:15:03;;;;;;;1.33;1.00;;;9.90;1.00;;;;;;5137613;27;20484;-76
2023/11/07 01:17:30;;;;;;;2.70;1.37;;;9.90;1.00;;;;;;5150657;27;20459;-74
2023/11/07 01:19:57;;;;;;;2.80;1.23;;;9.80;1.00;;;;;;5130314;27;20481;-74
2023/11/07 01:22:23;;;;;;;1.10;1.00;;;9.80;1.00;;;;;;5127558;27;20477;-79
2023/11/07 01:24:52;;;;;;;2.00;1.40;;;9.80;1.00;;;;;;5132648;27;20459;-79
2023/11/07 01:27:19;;;;;;;5.60;1.60;;;9.80;1.00;;;;;;5125806;27;20458;-77
2023/11/07 01:29:46;;;;;;;2.37;1.47;;;9.80;1.00;;;;;;5135923;27;20574;-73
2023/11/07 01:32:13;;;;;;;2.30;1.30;;;9.70;1.00;;;;;;5129694;27;21057;-77
2023/11/07 01:34:40;;;;;;;3.30;1.27;;;9.70;1.00;;;;;;5130800;27;20481;-80
2023/11/07 01:37:07;;;;;;;2.00;1.10;;;9.70;1.00;;;;;;5149256;27;20878;-79
2023/11/07 01:39:37;;;;;;;2.00;1.57;;;9.60;1.00;;;;;;5148928;27;20400;-78
2023/11/07 01:42:08;;;;;;;2.17;1.60;;;9.60;1.00;;;;;;5128482;27;20534;-78
2023/11/07 01:44:35;;;;;;;1.90;1.17;;;9.60;1.00;;;;;;5127854;27;20461;-79
2023/11/07 01:47:02;;;;;;;2.20;1.60;;;9.60;1.00;;;;;;5128210;27;20474;-80
2023/11/07 01:49:29;;;;;;;1.90;1.37;;;9.60;1.00;;;;;;5126312;27;20530;-80
2023/11/07 01:51:57;;;;;;;2.47;1.50;;;9.50;1.00;;;;;;5147032;27;20508;-78
2023/11/07 01:54:27;;;;;;;2.43;1.27;;;9.50;1.00;;;;;;5151236;27;20491;-79
2023/11/07 01:56:54;;;;;;;2.13;1.30;;;9.50;1.00;;;;;;5147938;27;21033;-79
2023/11/07 01:59:23;;;;;;;4.50;1.30;;;9.50;1.00;;;;;;5144399;27;20436;-79
2023/11/07 02:01:53;;;;;;;2.73;1.60;;;9.50;1.00;;;;;;5131807;27;20548;-76
2023/11/07 02:04:22;;;;;;;2.50;1.30;;;9.50;1.00;;;;;;5129249;27;20457;-80
2023/11/07 02:06:48;;;;;;;3.40;1.60;;;9.50;1.00;;;;;;5128330;27;20552;-79
2023/11/07 02:09:15;;;;;;;1.40;1.27;;;9.50;1.00;;;;;;5142389;27;20448;-79
2023/11/07 02:11:43;;;;;;;1.30;0.97;;;9.50;1.00;;;;;;5141468;27;20808;-72
2023/11/07 02:14:25;;;;;;;1.93;1.30;;;9.50;1.00;;;;;;5138499;27;20531;-77
2023/11/07 02:16:54;;;;;;;1.80;1.07;;;9.50;1.00;;;;;;5149953;27;20444;-79
2023/11/07 02:19:21;;;;;;;5.40;1.67;;;9.50;1.00;;;;;;5145856;27;20576;-80
2023/11/07 02:21:48;;;;;;;3.43;1.50;;;9.50;1.00;;;;;;5125071;27;20436;-80
2023/11/07 02:24:17;;;;;;;2.93;1.40;;;9.40;1.00;;;;;;5128486;27;20541;-80
2023/11/07 02:26:44;;;;;;;1.97;1.40;;;9.40;1.00;;;;;;5128516;27;20518;-76
2023/11/07 02:29:11;;;;;;;3.93;1.97;;;9.30;1.00;;;;;;5128326;27;20544;-80
2023/11/07 02:31:40;;;;;;;4.73;1.77;;;9.40;1.00;;;;;;5127706;27;21330;-80
2023/11/07 02:34:07;;;;;;;1.73;1.07;;;9.30;1.00;;;;;;5128829;27;20457;-71
2023/11/07 02:36:34;;;;;;;4.43;1.50;;;9.30;1.00;;;;;;5130822;27;21587;-71
2023/11/07 02:39:04;;;;;;;1.53;1.20;;;9.30;1.00;;;;;;5126274;27;20484;-72
2023/11/07 02:41:32;;;;;;;1.40;1.30;;;9.30;1.00;;;;;;5127650;27;20630;-71
2023/11/07 02:43:59;;;;;;;1.97;1.77;;;9.20;1.00;;;;;;5132474;27;20528;-71
2023/11/07 02:46:27;;;;;;;1.50;1.23;;;9.20;1.00;;;;;;5144277;27;20560;-72
2023/11/07 02:48:54;;;;;;;2.70;1.50;;;9.10;1.00;;;;;;5136835;27;20498;-72
2023/11/07 02:51:22;;;;;;;1.93;1.10;;;9.10;1.00;;;;;;5135882;27;20467;-72
2023/11/07 02:53:50;;;;;;;2.23;1.20;;;9.20;1.00;;;;;;5145028;27;20460;-72
2023/11/07 02:56:17;;;;;;;4.20;1.57;;;9.20;1.00;;;;;;5145635;27;20471;-72
2023/11/07 02:58:46;;;;;;;2.37;1.47;;;9.10;1.00;;;;;;5143108;27;20492;-72
2023/11/07 03:01:21;;;;;;;2.63;1.40;;;9.10;1.00;;;;;;5143298;27;20951;-73
2023/11/07 03:03:49;;;;;;;2.17;1.63;;;9.10;1.00;;;;;;5150760;27;20487;-73
2023/11/07 03:06:16;;;;;;;4.10;1.57;;;9.10;1.00;;;;;;5130752;27;20815;-72
2023/11/07 03:08:43;;;;;;;4.13;1.80;;;9.10;1.00;;;;;;5131312;27;20514;-73
2023/11/07 03:11:10;;;;;;;2.30;1.53;;;9.10;1.00;;;;;;5128826;27;20461;-75
2023/11/07 03:13:38;;;;;;;1.60;1.30;;;9.10;1.00;;;;;;5133722;27;20964;-73
2023/11/07 03:16:10;;;;;;;2.83;1.50;;;9.10;1.00;;;;;;5123307;27;20461;-73
2023/11/07 03:18:37;;;;;;;5.23;1.20;;;9.10;1.00;;;;;;5125711;27;20449;-71
2023/11/07 03:21:07;;;;;;;2.13;1.10;;;9.00;1.00;;;;;;5128044;27;20535;-72
2023/11/07 03:23:35;;;;;;;1.73;1.40;;;9.00;1.00;;;;;;5131419;27;20457;-71
2023/11/07 03:26:02;;;;;;;3.37;1.30;;;9.00;1.00;;;;;;5127142;27;20479;-72
2023/11/07 03:28:29;;;;;;;3.73;1.60;;;9.00;1.00;;;;;;5130713;27;20956;-71
2023/11/07 03:30:56;;;;;;;1.60;1.27;;;9.00;1.00;;;;;;5127374;27;20477;-71
2023/11/07 03:33:25;;;;;;;1.83;1.63;;;8.90;1.00;;;;;;5130109;27;20469;-71
2023/11/07 03:35:52;;;;;;;2.90;1.97;;;8.90;1.00;;;;;;5129075;27;20469;-71
2023/11/07 03:38:19;;;;;;;2.63;1.60;;;8.90;1.00;;;;;;5130321;27;20544;-71
2023/11/07 03:40:46;;;;;;;2.17;1.47;;;8.80;1.00;;;;;;5130002;27;20452;-71
2023/11/07 03:43:16;;;;;;;1.90;1.70;;;8.90;1.00;;;;;;5130597;27;20475;-72
2023/11/07 03:45:43;;;;;;;1.90;1.30;;;8.80;1.00;;;;;;5146257;27;20471;-71
2023/11/07 03:48:10;;;;;;;1.60;1.30;;;8.80;1.00;;;;;;5145128;27;20456;-71
2023/11/07 03:50:39;;;;;;;4.40;2.40;;;8.80;1.00;;;;;;5139726;27;20531;-70
2023/11/07 03:53:07;;;;;;;2.47;1.30;;;8.80;1.00;;;;;;5139790;27;20440;-68
2023/11/07 03:55:33;;;;;;;2.00;1.80;;;8.70;1.00;;;;;;5143523;27;20476;-69
2023/11/07 03:58:00;;;;;;;4.03;1.43;;;8.80;1.00;;;;;;5139569;27;20476;-70
2023/11/07 04:00:27;;;;;;;4.20;1.50;;;8.80;1.00;;;;;;5141446;27;20480;-69
2023/11/07 04:02:54;;;;;;;2.60;1.87;;;8.80;1.00;;;;;;5141544;27;20465;-69
2023/11/07 04:05:22;;;;;;;2.13;1.30;;;8.70;1.00;;;;;;5145778;27;20495;-69
2023/11/07 04:07:51;;;;;;;2.80;1.60;;;8.70;1.00;;;;;;5150746;27;20457;-74
2023/11/07 04:10:18;;;;;;;2.03;1.50;;;8.70;1.00;;;;;;5151775;27;20456;-69
2023/11/07 04:12:45;;;;;;;1.70;1.60;;;8.60;1.00;;;;;;5148641;27;20966;-69
2023/11/07 04:15:12;;;;;;;2.57;1.37;;;8.60;1.00;;;;;;5144790;27;20452;-70
2023/11/07 04:17:40;;;;;;;1.67;1.30;;;8.60;1.00;;;;;;5150282;27;20864;-70
2023/11/07 04:20:09;;;;;;;2.00;1.30;;;8.60;1.00;;;;;;5149439;27;20456;-70
2023/11/07 04:22:36;;;;;;;2.60;1.20;;;8.50;1.00;;;;;;5136336;27;20511;-70
2023/11/07 04:25:06;;;;;;;2.17;1.63;;;8.50;1.00;;;;;;5130287;27;20480;-71
2023/11/07 04:27:34;;;;;;;3.63;1.57;;;8.50;1.00;;;;;;5143722;27;20974;-72
2023/11/07 04:30:05;;;;;;;2.87;1.30;;;8.40;1.00;;;;;;5130163;27;21031;-71
2023/11/07 04:32:32;;;;;;;3.83;2.70;;;8.40;1.00;;;;;;5149409;27;21192;-69
2023/11/07 04:34:59;;;;;;;3.37;1.50;;;8.40;1.00;;;;;;5145978;27;20455;-70
2023/11/07 04:37:26;;;;;;;2.73;1.80;;;8.50;1.00;;;;;;5123878;27;20951;-69
2023/11/07 04:39:53;;;;;;;2.43;2.17;;;8.40;1.00;;;;;;5129924;27;21341;-70
2023/11/07 04:42:22;;;;;;;2.90;1.80;;;8.40;1.00;;;;;;5130564;27;20995;-69
2023/11/07 04:44:50;;;;;;;3.07;1.80;;;8.40;1.00;;;;;;5130131;27;20874;-69
2023/11/07 04:47:17;;;;;;;1.40;1.30;;;8.30;1.00;;;;;;5129832;27;20461;-69
2023/11/07 04:49:45;;;;;;;1.77;1.43;;;8.30;1.00;;;;;;5130683;27;20514;-69
2023/11/07 04:52:13;;;;;;;2.20;1.57;;;8.40;1.00;;;;;;5142546;27;21003;-74
2023/11/07 04:54:40;;;;;;;4.97;1.60;;;8.40;1.00;;;;;;5142196;27;20513;-74
2023/11/07 04:57:07;;;;;;;3.40;1.40;;;8.40;1.00;;;;;;5149438;27;20471;-73
2023/11/07 04:59:36;;;;;;;3.33;1.60;;;8.40;1.00;;;;;;5150234;27;21016;-74
2023/11/07 05:02:06;;;;;;;1.50;1.40;;;8.30;1.00;;;;;;5144479;27;20762;-75
2023/11/07 05:04:33;;;;;;;3.83;1.30;;;8.40;1.00;;;;;;5141652;27;21875;-73
2023/11/07 05:07:00;;;;;;;2.73;1.53;;;8.40;1.00;;;;;;5145994;27;20505;-74
2023/11/07 05:09:27;;;;;;;3.00;1.83;;;8.40;1.00;;;;;;5135582;27;21866;-74
2023/11/07 05:11:56;;;;;;;4.73;1.73;;;8.50;1.00;;;;;;5128275;27;20452;-74
2023/11/07 05:14:23;;;;;;;2.00;1.80;;;8.50;1.00;;;;;;5133555;27;20527;-72
2023/11/07 05:16:52;;;;;;;2.10;1.40;;;8.50;1.00;;;;;;5131552;27;20465;-73
2023/11/07 05:19:18;;;;;;;4.00;2.00;;;8.50;1.00;;;;;;5149591;27;20467;-73
2023/11/07 05:21:45;;;;;;;3.70;2.93;;;8.50;1.00;;;;;;5148768;27;20946;-75
2023/11/07 05:24:13;;;;;;;2.43;1.60;;;8.50;1.00;;;;;;5150910;27;20571;-76
2023/11/07 05:26:40;;;;;;;3.63;2.03;;;8.50;1.00;;;;;;5140243;27;20503;-74
2023/11/07 05:29:07;;;;;;;1.60;1.50;;;8.50;1.00;;;;;;5130391;27;20479;-74
2023/11/07 05:31:34;;;;;;;2.70;1.77;;;8.40;1.00;;;;;;5146627;27;20456;-74
2023/11/07 05:34:02;;;;;;;2.90;1.60;;;8.50;1.00;;;;;;5133946;27;20563;-75
2023/11/07 05:36:29;;;;;;;1.80;1.37;;;8.50;1.00;;;;;;5135988;27;21299;-75
2023/11/07 05:38:56;;;;;;;3.50;1.47;;;8.50;1.00;;;;;;5128782;27;20443;-73
2023/11/07 05:41:24;;;;;;;2.80;1.77;;;8.50;1.00;;;;;;5128416;27;20461;-73
2023/11/07 05:43:51;;;;;;;3.17;1.57;;;8.50;1.00;;;;;;5126009;27;20830;-73
2023/11/07 05:46:18;;;;;;;3.80;1.70;;;8.40;1.00;;;;;;5146645;27;20453;-72
2023/11/07 05:48:45;;;;;;;2.60;1.80;;;8.40;1.00;;;;;;5145293;27;20448;-73
2023/11/07 05:51:13;;;;;;;5.17;2.37;;;8.40;1.00;;;;;;5147025;27;20471;-73
2023/11/07 05:53:40;;;;;;;3.17;1.20;;;8.40;1.00;;;;;;5148804;27;20468;-72
2023/11/07 05:56:08;;;;;;;2.50;1.77;;;8.40;1.00;;;;;;5147147;27;20462;-74
2023/11/07 05:58:36;;;;;;;2.90;2.33;;;8.30;1.00;;;;;;5145538;27;20509;-75
2023/11/07 06:01:04;;;;;;;2.43;1.50;;;8.30;1.00;;;;;;5146797;27;20487;-75
2023/11/07 06:03:31;;;;;;;3.37;1.80;;;8.30;1.00;;;;;;5147173;27;20525;-70
2023/11/07 06:05:58;;;;;;;2.60;1.83;;;8.20;1.00;;;;;;5149588;27;21033;-72
2023/11/07 06:08:27;;;;;;;4.20;1.90;;;8.20;1.00;;;;;;5154589;27;20456;-72
2023/11/07 06:10:54;;;;;;;4.43;2.43;;;8.30;1.00;;;;;;5142782;27;20956;-72
2023/11/07 06:13:21;;;;;;;1.90;1.80;;;8.20;1.00;;;;;;5152135;27;20435;-73
2023/11/07 06:15:48;;;;;;;6.93;2.80;;;8.30;1.00;;;;;;5150788;27;20947;-71
2023/11/07 06:18:15;;;;;;;4.13;2.10;;;8.30;1.00;;;;;;5151450;27;20451;-71
2023/11/07 06:20:42;;;;;;;4.40;2.07;;;8.30;1.00;;;;;;5153033;27;20456;-73
2023/11/07 06:23:09;;;;;;;3.70;2.20;;;8.40;1.00;;;;;;5151702;27;20538;-72
2023/11/07 06:25:38;;;;;;;3.47;3.13;;;8.30;1.00;;;;;;5150741;27;20496;-71
2023/11/07 06:28:05;;;;;;;4.77;2.33;;;8.30;1.00;;;;;;5149711;27;21337;-72
2023/11/07 06:30:33;;;;;;;3.00;2.60;;;8.30;1.00;;;;;;5141375;27;20504;-72
2023/11/07 06:33:02;;;;;;;2.77;2.27;;;8.40;1.00;;;;;;5127776;27;20525;-72
2023/11/07 06:35:29;;;;;;;2.30;2.07;;;8.40;1.00;;;;;;5141310;27;20460;-72
2023/11/07 06:37:56;;;;;;;4.60;2.27;;;8.30;1.00;;;;;;5132270;27;20544;-70
2023/11/07 06:40:23;;;;;;;4.07;2.90;;;8.40;1.00;;;;;;5147754;27;20487;-73
2023/11/07 06:42:52;;;;;;;5.33;2.40;;;8.40;1.00;;;;;;5151749;27;20965;-70
2023/11/07 06:45:19;;;;;;;5.20;2.43;;;8.40;1.00;;;;;;5151253;27;20973;-71
2023/11/07 06:47:47;;;;;;;3.13;2.43;;;8.40;1.00;;;;;;5148551;27;20550;-73
2023/11/07 06:50:15;;;;;;;5.70;2.63;;;8.40;1.00;;;;;;5137554;27;20533;-72
2023/11/07 06:52:49;;;;;;;3.47;2.30;;;8.50;1.00;;;;;;5129469;27;20496;-73
2023/11/07 06:55:19;;;;;;;4.40;2.27;;;8.50;1.00;;;;;;5130183;27;20948;-71
2023/11/07 06:57:45;;;;;;;4.97;2.27;;;8.50;1.00;;;;;;5130836;27;20468;-72
2023/11/07 07:00:15;;;;;;;3.77;2.40;;;8.60;1.00;;;;;;5141965;27;20580;-71
2023/11/07 07:02:42;;;;;;;3.60;2.40;;;8.50;1.00;;;;;;5139374;27;20508;-73
2023/11/07 07:05:12;;;;;;;3.93;2.87;;;8.60;1.00;;;;;;5130020;27;21438;-71
2023/11/07 07:07:40;;;;;;;2.97;2.77;;;8.60;1.00;;;;;;5130460;27;20527;-73
2023/11/07 07:10:09;;;;;;;3.37;2.77;;;8.70;1.00;;;;;;5130631;27;20988;-72
2023/11/07 07:12:36;;;;;;;7.67;2.50;;;8.70;1.00;;;;;;5131055;27;21066;-71
2023/11/07 07:15:03;;;;;;;3.80;2.60;;;8.70;1.00;;;;;;5126505;27;20452;-71
2023/11/07 07:17:31;;;;;;;4.07;2.67;;;8.80;1.00;;;;;;5129444;27;20461;-71
2023/11/07 07:19:58;;;;;;;3.00;2.47;;;8.80;1.00;;;;;;5127775;27;20453;-71
2023/11/07 07:22:28;;;;;;;8.37;3.00;;;8.80;1.00;;;;;;5130589;27;20463;-72
2023/11/07 07:24:55;;;;;;;8.63;3.63;;;8.80;1.00;;;;;;5128746;27;20539;-71
2023/11/07 07:27:24;;;;;;;4.47;3.37;;;8.80;1.00;;;;;;5126839;27;20480;-76
2023/11/07 07:29:51;;;;;;;8.00;3.20;;;8.90;1.00;;;;;;5129795;27;21312;-71
2023/11/07 07:32:20;;;;;;;6.50;2.80;;;9.10;1.00;;;;;;5131053;27;20496;-72
2023/11/07 07:34:49;;;;;;;5.23;3.07;;;9.20;1.00;;;;;;5129123;27;20493;-73
2023/11/07 07:37:20;;;;;;;8.73;2.80;;;9.20;1.00;;;;;;5129627;27;20464;-71
2023/11/07 07:39:47;;;;;;;6.60;3.73;;;9.30;1.00;;;;;;5129145;27;20453;-72
2023/11/07 07:42:17;;;;;;;9.57;4.33;;;9.40;1.00;;;;;;5132484;27;20517;-73
2023/11/07 07:44:45;;;;;;;2.87;2.63;;;9.40;1.00;;;;;;5143445;27;20444;-71
2023/11/07 07:47:15;;;;;;;4.23;3.03;;;9.50;1.00;;;;;;5127018;27;20445;-72
2023/11/07 07:49:42;;;;;;;4.87;2.80;;;9.60;1.00;;;;;;5129726;27;20451;-72
2023/11/07 07:52:10;;;;;;;6.10;2.70;;;9.70;1.00;;;;;;5127944;27;20538;-71
2023/11/07 07:54:38;;;;;;;3.00;2.70;;;9.80;1.00;;;;;;5130560;27;20445;-71
2023/11/07 07:57:08;;;;;;;6.73;2.30;;;10.00;1.00;;;;;;5136049;27;21362;-73
2023/11/07 07:59:40;;;;;;;3.57;2.30;;;10.00;1.00;;;;;;5127847;27;20463;-72
2023/11/07 08:02:08;;;;;;;4.77;2.70;;;10.20;1.00;;;;;;5134146;27;20484;-73
2023/11/07 08:04:35;;;;;;;3.17;2.30;;;10.30;1.00;;;;;;5128412;27;20449;-72
2023/11/07 08:07:03;;;;;;;4.03;2.83;;;10.40;1.00;;;;;;5139985;27;20467;-72
2023/11/07 08:09:32;;;;;;;2.40;2.07;;;10.60;1.00;;;;;;5127261;27;20459;-75
2023/11/07 08:12:00;;;;;;;2.73;2.00;;;11.10;1.00;;;;;;5126577;27;20556;-75
2023/11/07 08:14:29;;;;;;;3.80;1.87;;;11.50;1.00;;;;;;5124944;27;20458;-74
2023/11/07 08:16:56;;;;;;;2.87;1.53;;;11.50;1.00;;;;;;5126618;27;20547;-72
2023/11/07 08:19:24;;;;;;;2.83;2.17;;;11.30;1.00;;;;;;5128775;27;20461;-73
2023/11/07 08:21:51;;;;;;;4.03;1.70;;;11.20;1.00;;;;;;5129075;27;20526;-69
2023/11/07 08:24:18;;;;;;;3.40;1.80;;;11.20;1.00;;;;;;5128903;27;20441;-70
2023/11/07 08:26:48;;;;;;;2.50;1.83;;;11.20;1.00;;;;;;5128561;27;20464;-70
2023/11/07 08:29:15;;;;;;;2.97;2.20;;;11.20;1.00;;;;;;5139567;27;20459;-71
2023/11/07 08:31:42;;;;;;;6.90;2.30;;;11.30;1.00;;;;;;5124659;27;21758;-70
2023/11/07 08:34:10;;;;;;;3.90;2.03;;;11.30;1.00;;;;;;5119791;27;20580;-71
2023/11/07 08:36:38;;;;;;;2.20;1.80;;;11.30;1.00;;;;;;5122619;27;20500;-74
2023/11/07 08:39:12;;;;;;;3.70;2.03;;;11.30;1.00;;;;;;5128238;27;20469;-72
2023/11/07 08:41:39;;;;;;;3.87;2.43;;;11.40;1.00;;;;;;5137076;27;20471;-74
2023/11/07 08:44:08;;;;;;;2.00;1.80;;;11.40;1.00;;;;;;5126363;27;20457;-71
2023/11/07 08:46:36;;;;;;;2.97;1.80;;;11.50;1.00;;;;;;5133319;27;21610;-73
2023/11/07 08:49:04;;;;;;;3.03;1.50;;;11.50;1.00;;;;;;5146009;27;21153;-69
2023/11/07 08:51:31;;;;;;;2.47;1.70;;;11.60;1.00;;;;;;5125231;27;20932;-73
2023/11/07 08:53:58;;;;;;;3.40;2.10;;;11.50;1.00;;;;;;5141120;27;22588;-70
2023/11/07 08:56:25;;;;;;;1.40;1.30;;;11.70;1.00;;;;;;5125221;27;20545;-70
2023/11/07 08:58:52;;;;;;;3.80;1.60;;;11.70;1.00;;;;;;5142889;27;20515;-70
2023/11/07 09:01:21;;;;;;;2.27;1.17;;;11.80;1.00;;;;;;5122015;27;20500;-72
2023/11/07 09:03:48;;;;;;;2.40;1.67;;;11.90;1.00;;;;;;5127437;27;20473;-76
2023/11/07 09:06:15;;;;;;;3.10;1.27;;;11.90;1.00;;;;;;5141956;27;20461;-75
2023/11/07 09:08:42;;;;;;;2.90;1.60;;;12.00;1.00;;;;;;5149579;27;20473;-75
2023/11/07 09:11:09;;;;;;;4.37;2.10;;;12.30;1.00;;;;;;5136552;27;20472;-75
2023/11/07 09:13:36;;;;;;;3.57;1.50;;;12.90;1.00;;;;;;5128616;27;20457;-73
2023/11/07 09:16:08;;;;;;;2.30;1.40;;;13.40;1.00;;;;;;5129375;27;20565;-75
2023/11/07 09:18:38;;;;;;;2.73;1.50;;;13.70;1.00;;;;;;5150002;27;20469;-76
2023/11/07 09:21:05;;;;;;;3.20;1.80;;;13.90;1.00;;;;;;5138836;27;20475;-75
2023/11/07 09:23:32;;;;;;;2.57;1.40;;;13.90;1.00;;;;;;5133480;27;21004;-78
2023/11/07 09:26:00;;;;;;;2.60;1.60;;;13.80;1.00;;;;;;5146392;27;20454;-74
2023/11/07 09:28:28;;;;;;;2.00;1.37;;;13.60;1.00;;;;;;5142718;27;20947;-76
2023/11/07 09:30:57;;;;;;;2.40;1.33;;;13.70;1.00;;;;;;5138422;27;21014;-74
2023/11/07 09:33:24;;;;;;;4.90;1.90;;;13.80;1.00;;;;;;5144452;27;20482;-75
2023/11/07 09:35:53;;;;;;;2.30;1.80;;;14.10;1.00;;;;;;5131477;27;20983;-76
2023/11/07 09:38:19;;;;;;;1.70;1.40;;;14.40;1.00;;;;;;5147254;27;20482;-74
2023/11/07 09:40:47;;;;;;;1.77;1.07;;;14.60;1.00;;;;;;5131771;27;21019;-73
2023/11/07 09:43:16;;;;;;;3.20;1.50;;;14.80;1.00;;;;;;5131194;27;20447;-74
2023/11/07 09:45:46;;;;;;;3.43;1.30;;;15.00;1.00;;;;;;5144627;27;20456;-76
2023/11/07 09:48:14;;;;;;;2.70;1.30;;;15.10;1.00;;;;;;5151338;27;20473;-73
2023/11/07 09:50:43;;;;;;;2.50;1.57;;;14.80;1.00;;;;;;5149801;27;20467;-74
2023/11/07 09:53:14;;;;;;;2.07;1.20;;;14.50;1.00;;;;;;5151007;27;20581;-75
2023/11/07 09:55:41;;;;;;;4.10;1.47;;;14.30;1.00;;;;;;5151044;27;20514;-74
2023/11/07 09:58:14;;;;;;;2.00;1.40;;;14.20;1.00;;;;;;5150488;27;20512;-74
2023/11/07 10:00:44;;;;;;;3.67;1.47;;;14.20;1.00;;;;;;5143901;27;20867;-75
2023/11/07 10:03:13;;;;;;;2.13;1.40;;;14.20;1.00;;;;;;5147806;27;20566;-73
2023/11/07 10:05:40;;;;;;;3.63;1.57;;;14.20;1.00;;;;;;5145893;27;20528;-74
2023/11/07 10:08:07;;;;;;;2.70;1.40;;;14.40;1.00;;;;;;5152087;27;20582;-73
2023/11/07 10:10:36;;;;;;;3.43;1.20;;;14.30;1.00;;;;;;5143756;27;20482;-74
2023/11/07 10:13:11;;;;;;;4.97;1.30;;;14.60;1.00;;;;;;5126811;27;21105;-73
2023/11/07 10:15:39;;;;;;;3.87;1.80;;;14.70;1.00;;;;;;5135098;27;20478;-71
2023/11/07 10:18:08;;;;;;;1.50;1.23;;;15.00;1.00;;;;;;5149007;27;20462;-72
2023/11/07 10:20:36;;;;;;;2.37;1.50;;;15.20;1.00;;;;;;5144925;27;20543;-75
2023/11/07 10:23:04;;;;;;;1.60;1.20;;;15.20;1.00;;;;;;5141094;27;20456;-72
2023/11/07 10:25:33;;;;;;;2.70;2.10;;;15.10;1.00;;;;;;5143652;27;20524;-72
2023/11/07 10:28:03;;;;;;;3.03;1.90;;;15.00;1.00;;;;;;5129888;27;20621;-72
2023/11/07 10:30:48;;;;;;;2.50;1.63;;;14.90;1.00;;;;;;5127435;27;20471;-70
2023/11/07 10:33:25;;;;;;;1.97;1.57;;;14.80;1.00;;;;;;5142322;27;20483;-75
2023/11/07 10:35:54;;;;;;;2.80;1.30;;;14.80;1.00;;;;;;5129152;27;20987;-75
2023/11/07 10:38:21;;;;;;;3.10;1.93;;;14.70;1.00;;;;;;5150736;27;20467;-74
2023/11/07 10:40:49;;;;;;;2.70;1.40;;;14.60;1.00;;;;;;5151308;27;20465;-72
2023/11/07 10:43:32;;;;;;;7.60;1.60;;;14.60;1.00;;;;;;5128191;27;20451;-72
2023/11/07 10:46:02;;;;;;;4.43;2.30;;;14.90;1.00;;;;;;5127524;27;20567;-72
2023/11/07 10:48:32;;;;;;;1.80;1.20;;;15.40;1.00;;;;;;5129860;27;20460;-70
2023/11/07 10:51:03;;;;;;;4.60;1.23;;;15.60;1.00;;;;;;5126666;27;20472;-71
2023/11/07 10:53:30;;;;;;;2.13;1.53;;;15.70;1.00;;;;;;5127283;27;20464;-71
2023/11/07 10:55:59;;;;;;;3.40;1.80;;;15.90;1.00;;;;;;5126280;27;20576;-72
2023/11/07 10:58:31;;;;;;;3.23;1.20;;;16.50;1.00;;;;;;5131979;27;20904;-73
2023/11/07 11:01:02;;;;;;;1.57;1.13;;;16.50;1.00;;;;;;5127571;27;20461;-71
2023/11/07 11:03:30;;;;;;;5.13;1.50;;;16.20;1.00;;;;;;5123107;27;20471;-72
2023/11/07 11:05:59;;;;;;;4.77;1.70;;;16.00;1.00;;;;;;5126238;27;20457;-72
2023/11/07 11:08:28;;;;;;;3.03;1.37;;;15.80;1.00;;;;;;5129201;27;20930;-72
2023/11/07 11:10:58;;;;;;;3.37;1.10;;;15.70;1.00;;;;;;5123180;27;20571;-71
2023/11/07 11:13:27;;;;;;;2.13;1.20;;;15.60;1.00;;;;;;5128442;27;21310;-71
2023/11/07 11:15:56;;;;;;;3.00;1.30;;;15.60;1.00;;;;;;5128703;27;20488;-71
2023/11/07 11:18:28;;;;;;;2.90;1.40;;;15.60;1.00;;;;;;5127994;27;20468;-71
2023/11/07 11:21:03;;;;;;;2.97;1.33;;;15.70;1.00;;;;;;5128426;27;20578;-72
2023/11/07 11:23:39;;;;;;;2.30;1.23;;;15.90;1.00;;;;;;5127017;27;20494;-72
2023/11/07 11:26:18;;;;;;;4.43;1.40;;;15.70;1.00;;;;;;5128099;27;20511;-70
2023/11/07 11:28:47;;;;;;;1.47;1.00;;;15.80;1.00;;;;;;5126335;27;20449;-71
2023/11/07 11:31:20;;;;;;;3.33;1.50;;;15.50;1.00;;;;;;5126790;27;20993;-73
2023/11/07 11:33:49;;;;;;;2.03;1.60;;;15.50;1.00;;;;;;5130052;27;20989;-73
2023/11/07 11:36:37;;;;;;;1.67;1.50;;;15.50;1.00;;;;;;5125418;27;20460;-71
2023/11/07 11:39:48;;;;;;;1.67;1.40;;;15.40;1.00;;;;;;5127633;27;20461;-71
2023/11/07 11:42:15;;;;;;;4.40;1.90;;;15.60;1.00;;;;;;5126539;27;20550;-71
2023/11/07 11:44:44;;;;;;;2.40;1.37;;;15.60;1.00;;;;;;5128689;27;20462;-71
2023/11/07 11:47:51;;;;;;;2.63;1.30;;;15.60;1.00;;;;;;5147073;27;20594;-72
2023/11/07 11:50:19;;;;;;;2.60;1.30;;;15.70;1.00;;;;;;5130886;27;20449;-71
2023/11/07 11:52:46;;;;;;;2.63;1.50;;;16.00;1.00;;;;;;5144241;27;20480;-72
2023/11/07 11:55:15;;;;;;;1.67;1.20;;;16.40;1.00;;;;;;5139520;27;20497;-73
2023/11/07 11:58:15;;;;;;;1.43;0.90;;;16.50;1.00;;;;;;5127210;27;20515;-72
2023/11/07 12:00:45;;;;;;;2.80;1.40;;;16.40;1.00;;;;;;5149384;27;20448;-72
2023/11/07 12:03:19;;;;;;;2.97;1.20;;;16.40;1.00;;;;;;5148514;27;20463;-75
2023/11/07 12:06:02;;;;;;;2.20;1.17;;;16.30;1.00;;;;;;5145908;27;20452;-73
2023/11/07 12:08:37;;;;;;;1.67;1.33;;;16.50;1.00;;;;;;5146010;27;20467;-73
2023/11/07 12:11:05;;;;;;;1.50;1.37;;;17.60;1.00;;;;;;5145162;27;20549;-74
2023/11/07 12:13:32;;;;;;;1.93;1.30;;;18.00;1.00;;;;;;5149080;27;20992;-73
2023/11/07 12:16:19;;;;;;;1.70;1.40;;;17.80;1.00;;;;;;5141051;27;20544;-72
2023/11/07 12:18:48;;;;;;;1.80;1.67;;;17.30;1.00;;;;;;5139880;27;20548;-75
2023/11/07 12:21:25;;;;;;;1.63;1.47;;;16.90;1.00;;;;;;5130868;27;21072;-76
2023/11/07 12:23:53;;;;;;;2.17;1.40;;;16.70;1.00;;;;;;5144005;27;20967;-75
2023/11/07 12:26:24;;;;;;;3.80;1.67;;;16.60;1.00;;;;;;5147513;27;20552;-77
2023/11/07 12:28:51;;;;;;;2.40;1.27;;;16.70;1.00;;;;;;5146696;27;20488;-75
2023/11/07 12:31:19;;;;;;;2.63;1.30;;;17.10;1.00;;;;;;5132148;27;21191;-75
2023/11/07 12:33:46;;;;;;;2.10;1.30;;;17.60;1.00;;;;;;5122891;27;20558;-74
2023/11/07 12:36:15;;;;;;;2.50;1.67;;;17.90;1.00;;;;;;5138767;27;20453;-74
2023/11/07 12:38:44;;;;;;;2.77;1.37;;;17.80;1.00;;;;;;5153565;27;20475;-74
2023/11/07 12:41:11;;;;;;;2.30;1.30;;;18.10;1.00;;;;;;5145648;27;20446;-76
2023/11/07 12:43:40;;;;;;;1.87;1.30;;;18.20;1.00;;;;;;5128323;27;21055;-74
2023/11/07 12:46:11;;;;;;;3.67;1.60;;;17.60;1.00;;;;;;5135027;27;20941;-76
2023/11/07 12:48:41;;;;;;;2.40;1.50;;;17.00;1.00;;;;;;5144518;27;20463;-75
2023/11/07 12:51:09;;;;;;;2.50;1.80;;;16.50;1.00;;;;;;5127551;27;20464;-75
2023/11/07 12:53:51;;;;;;;1.23;1.13;;;16.10;1.00;;;;;;5142902;27;20476;-74
2023/11/07 12:56:19;;;;;;;1.43;1.33;;;15.80;1.00;;;;;;5138960;27;20583;-76
2023/11/07 12:58:47;;;;;;;1.43;1.13;;;16.20;1.00;;;;;;5140393;27;20465;-75
2023/11/07 13:01:15;;;;;;;2.63;1.77;;;16.60;1.00;;;;;;5126420;27;20449;-75
2023/11/07 13:03:44;;;;;;;2.27;1.30;;;16.40;1.00;;;;;;5126719;27;20553;-77
2023/11/07 13:06:12;;;;;;;3.03;1.33;;;16.40;1.00;;;;;;5133547;27;20847;-73
2023/11/07 13:08:44;;;;;;;2.87;1.13;;;16.80;1.00;;;;;;5127461;27;20525;-76
2023/11/07 13:11:15;;;;;;;1.73;1.43;;;17.30;1.00;;;;;;5126905;27;20933;-79